sensor_id;sensor_type;location;lat;lon;timestamp;temperature;humidity
68922;DHT22;55959;51.244;5.724;2023-01-08T00:00:49;13.80;70.40
68922;DHT22;55959;51.244;5.724;2023-01-08T00:03:15;13.80;70.40
68922;DHT22;55959;51.244;5.724;2023-01-08T00:05:41;13.80;70.30
68922;DHT22;55959;51.244;5.724;2023-01-08T00:08:08;13.80;70.20
68922;DHT22;55959;51.244;5.724;2023-01-08T00:10:35;13.80;70.20
68922;DHT22;55959;51.244;5.724;2023-01-08T00:13:01;13.80;70.20
68922;DHT22;55959;51.244;5.724;2023-01-08T00:15:27;13.80;70.10
68922;DHT22;55959;51.244;5.724;2023-01-08T00:17:54;13.80;70.10
68922;DHT22;55959;51.244;5.724;2023-01-08T00:20:21;13.80;70.00
68922;DHT22;55959;51.244;5.724;2023-01-08T00:22:48;13.80;70.00
68922;DHT22;55959;51.244;5.724;2023-01-08T00:25:14;13.80;69.90
68922;DHT22;55959;51.244;5.724;2023-01-08T00:27:40;13.80;69.80
68922;DHT22;55959;51.244;5.724;2023-01-08T00:30:06;13.80;69.80
68922;DHT22;55959;51.244;5.724;2023-01-08T00:32:33;13.80;69.70
68922;DHT22;55959;51.244;5.724;2023-01-08T00:34:59;13.80;69.70
68922;DHT22;55959;51.244;5.724;2023-01-08T00:37:26;13.80;69.60
68922;DHT22;55959;51.244;5.724;2023-01-08T00:39:52;13.80;69.60
68922;DHT22;55959;51.244;5.724;2023-01-08T00:42:18;13.80;69.60
68922;DHT22;55959;51.244;5.724;2023-01-08T00:44:44;13.80;69.60
68922;DHT22;55959;51.244;5.724;2023-01-08T00:47:10;13.80;69.60
68922;DHT22;55959;51.244;5.724;2023-01-08T00:49:35;13.80;69.60
68922;DHT22;55959;51.244;5.724;2023-01-08T00:52:01;13.80;69.60
68922;DHT22;55959;51.244;5.724;2023-01-08T00:54:27;13.80;69.60
68922;DHT22;55959;51.244;5.724;2023-01-08T00:56:57;13.80;69.70
68922;DHT22;55959;51.244;5.724;2023-01-08T00:59:22;13.70;69.70
68922;DHT22;55959;51.244;5.724;2023-01-08T01:01:48;13.80;69.80
68922;DHT22;55959;51.244;5.724;2023-01-08T01:04:14;13.70;69.80
68922;DHT22;55959;51.244;5.724;2023-01-08T01:06:40;13.70;69.80
68922;DHT22;55959;51.244;5.724;2023-01-08T01:09:06;13.70;69.80
68922;DHT22;55959;51.244;5.724;2023-01-08T01:11:32;13.70;69.90
68922;DHT22;55959;51.244;5.724;2023-01-08T01:13:59;13.70;69.90
68922;DHT22;55959;51.244;5.724;2023-01-08T01:16:25;13.70;69.80
68922;DHT22;55959;51.244;5.724;2023-01-08T01:18:51;13.70;69.80
68922;DHT22;55959;51.244;5.724;2023-01-08T01:21:22;13.70;69.90
68922;DHT22;55959;51.244;5.724;2023-01-08T01:23:56;13.70;70.00
68922;DHT22;55959;51.244;5.724;2023-01-08T01:26:25;13.70;70.80
68922;DHT22;55959;51.244;5.724;2023-01-08T01:28:53;13.70;70.00
68922;DHT22;55959;51.244;5.724;2023-01-08T01:31:21;13.70;70.00
68922;DHT22;55959;51.244;5.724;2023-01-08T01:33:48;13.70;70.00
68922;DHT22;55959;51.244;5.724;2023-01-08T01:36:16;13.70;70.00
68922;DHT22;55959;51.244;5.724;2023-01-08T01:38:44;13.70;70.80
68922;DHT22;55959;51.244;5.724;2023-01-08T01:41:20;13.70;70.00
68922;DHT22;55959;51.244;5.724;2023-01-08T01:43:51;13.70;70.00
68922;DHT22;55959;51.244;5.724;2023-01-08T01:46:38;13.70;69.90
68922;DHT22;55959;51.244;5.724;2023-01-08T01:49:11;13.70;69.90
68922;DHT22;55959;51.244;5.724;2023-01-08T01:51:47;13.70;69.80
68922;DHT22;55959;51.244;5.724;2023-01-08T01:54:16;13.70;69.80
68922;DHT22;55959;51.244;5.724;2023-01-08T01:56:43;13.70;69.80
68922;DHT22;55959;51.244;5.724;2023-01-08T01:59:10;13.70;69.80
68922;DHT22;55959;51.244;5.724;2023-01-08T02:01:37;13.70;69.80
68922;DHT22;55959;51.244;5.724;2023-01-08T02:04:03;13.70;69.70
68922;DHT22;55959;51.244;5.724;2023-01-08T02:06:56;13.60;69.60
68922;DHT22;55959;51.244;5.724;2023-01-08T02:09:35;13.70;69.60
68922;DHT22;55959;51.244;5.724;2023-01-08T02:12:46;13.60;69.40
68922;DHT22;55959;51.244;5.724;2023-01-08T02:15:22;13.60;69.50
68922;DHT22;55959;51.244;5.724;2023-01-08T02:20:42;13.60;69.50
68922;DHT22;55959;51.244;5.724;2023-01-08T02:26:06;13.60;69.40
68922;DHT22;55959;51.244;5.724;2023-01-08T02:28:56;13.60;69.40
68922;DHT22;55959;51.244;5.724;2023-01-08T02:31:26;13.60;69.30
68922;DHT22;55959;51.244;5.724;2023-01-08T02:33:54;13.60;69.40
68922;DHT22;55959;51.244;5.724;2023-01-08T02:42:05;13.70;69.30
68922;DHT22;55959;51.244;5.724;2023-01-08T02:44:44;13.70;69.20
68922;DHT22;55959;51.244;5.724;2023-01-08T02:47:40;13.70;69.20
68922;DHT22;55959;51.244;5.724;2023-01-08T02:55:20;13.70;70.00
68922;DHT22;55959;51.244;5.724;2023-01-08T02:57:47;13.70;69.00
68922;DHT22;55959;51.244;5.724;2023-01-08T03:00:13;13.80;69.10
68922;DHT22;55959;51.244;5.724;2023-01-08T03:02:40;13.80;69.10
68922;DHT22;55959;51.244;5.724;2023-01-08T03:05:14;13.80;68.90
68922;DHT22;55959;51.244;5.724;2023-01-08T03:07:45;13.80;68.40
68922;DHT22;55959;51.244;5.724;2023-01-08T03:10:11;13.80;68.00
68922;DHT22;55959;51.244;5.724;2023-01-08T03:12:50;13.80;68.10
68922;DHT22;55959;51.244;5.724;2023-01-08T03:15:29;13.70;67.80
68922;DHT22;55959;51.244;5.724;2023-01-08T03:18:01;13.70;67.80
68922;DHT22;55959;51.244;5.724;2023-01-08T03:20:31;13.70;67.80
68922;DHT22;55959;51.244;5.724;2023-01-08T03:22:59;13.70;67.90
68922;DHT22;55959;51.244;5.724;2023-01-08T03:25:29;13.60;67.90
68922;DHT22;55959;51.244;5.724;2023-01-08T03:27:58;13.60;68.00
68922;DHT22;55959;51.244;5.724;2023-01-08T03:30:27;13.60;68.00
68922;DHT22;55959;51.244;5.724;2023-01-08T03:32:56;13.60;68.00
68922;DHT22;55959;51.244;5.724;2023-01-08T03:35:23;13.50;68.10
68922;DHT22;55959;51.244;5.724;2023-01-08T03:37:57;13.50;68.20
68922;DHT22;55959;51.244;5.724;2023-01-08T03:40:38;13.50;68.40
68922;DHT22;55959;51.244;5.724;2023-01-08T03:43:05;13.50;68.40
68922;DHT22;55959;51.244;5.724;2023-01-08T03:45:32;13.50;68.30
68922;DHT22;55959;51.244;5.724;2023-01-08T03:47:58;13.40;68.40
68922;DHT22;55959;51.244;5.724;2023-01-08T03:50:28;13.40;68.60
68922;DHT22;55959;51.244;5.724;2023-01-08T03:52:56;13.40;68.80
68922;DHT22;55959;51.244;5.724;2023-01-08T03:55:21;13.40;68.90
68922;DHT22;55959;51.244;5.724;2023-01-08T03:57:47;13.40;69.00
68922;DHT22;55959;51.244;5.724;2023-01-08T04:00:13;13.50;69.10
68922;DHT22;55959;51.244;5.724;2023-01-08T04:02:39;13.40;69.00
68922;DHT22;55959;51.244;5.724;2023-01-08T04:05:07;13.40;69.00
68922;DHT22;55959;51.244;5.724;2023-01-08T04:07:33;13.40;69.00
68922;DHT22;55959;51.244;5.724;2023-01-08T04:09:59;13.40;68.90
68922;DHT22;55959;51.244;5.724;2023-01-08T04:12:26;13.50;69.00
68922;DHT22;55959;51.244;5.724;2023-01-08T04:14:52;13.50;69.90
68922;DHT22;55959;51.244;5.724;2023-01-08T04:17:17;13.50;69.00
68922;DHT22;55959;51.244;5.724;2023-01-08T04:19:43;13.50;69.10
68922;DHT22;55959;51.244;5.724;2023-01-08T04:22:10;13.50;69.20
68922;DHT22;55959;51.244;5.724;2023-01-08T04:24:35;13.50;69.20
68922;DHT22;55959;51.244;5.724;2023-01-08T04:27:01;13.50;70.30
68922;DHT22;55959;51.244;5.724;2023-01-08T04:29:27;13.50;69.50
68922;DHT22;55959;51.244;5.724;2023-01-08T04:31:53;13.50;69.60
68922;DHT22;55959;51.244;5.724;2023-01-08T04:34:18;13.50;69.60
68922;DHT22;55959;51.244;5.724;2023-01-08T04:36:44;13.50;69.50
68922;DHT22;55959;51.244;5.724;2023-01-08T04:39:10;13.50;69.40
68922;DHT22;55959;51.244;5.724;2023-01-08T04:41:36;13.50;69.40
68922;DHT22;55959;51.244;5.724;2023-01-08T04:44:02;13.50;69.10
68922;DHT22;55959;51.244;5.724;2023-01-08T04:46:28;13.50;68.90
68922;DHT22;55959;51.244;5.724;2023-01-08T04:48:55;13.50;68.80
68922;DHT22;55959;51.244;5.724;2023-01-08T04:51:20;13.50;68.50
68922;DHT22;55959;51.244;5.724;2023-01-08T04:53:47;13.50;68.60
68922;DHT22;55959;51.244;5.724;2023-01-08T04:56:13;13.40;68.60
68922;DHT22;55959;51.244;5.724;2023-01-08T04:58:39;13.50;68.60
68922;DHT22;55959;51.244;5.724;2023-01-08T05:01:13;13.50;68.60
68922;DHT22;55959;51.244;5.724;2023-01-08T05:03:43;13.50;68.60
68922;DHT22;55959;51.244;5.724;2023-01-08T05:06:09;13.50;68.60
68922;DHT22;55959;51.244;5.724;2023-01-08T05:08:34;13.50;68.70
68922;DHT22;55959;51.244;5.724;2023-01-08T05:11:01;13.50;68.80
68922;DHT22;55959;51.244;5.724;2023-01-08T05:13:28;13.50;68.80
68922;DHT22;55959;51.244;5.724;2023-01-08T05:15:57;13.50;68.80
68922;DHT22;55959;51.244;5.724;2023-01-08T05:18:24;13.40;68.70
68922;DHT22;55959;51.244;5.724;2023-01-08T05:20:50;13.40;68.70
68922;DHT22;55959;51.244;5.724;2023-01-08T05:23:16;13.40;68.40
68922;DHT22;55959;51.244;5.724;2023-01-08T05:25:41;13.30;68.40
68922;DHT22;55959;51.244;5.724;2023-01-08T05:28:07;13.30;68.40
68922;DHT22;55959;51.244;5.724;2023-01-08T05:30:33;13.20;66.60
68922;DHT22;55959;51.244;5.724;2023-01-08T05:33:00;13.10;66.90
68922;DHT22;55959;51.244;5.724;2023-01-08T05:35:26;13.00;66.00
68922;DHT22;55959;51.244;5.724;2023-01-08T05:37:51;13.00;66.20
68922;DHT22;55959;51.244;5.724;2023-01-08T05:40:17;12.90;65.80
68922;DHT22;55959;51.244;5.724;2023-01-08T05:42:43;12.80;66.00
68922;DHT22;55959;51.244;5.724;2023-01-08T05:45:09;12.80;66.20
68922;DHT22;55959;51.244;5.724;2023-01-08T05:47:34;12.70;66.50
68922;DHT22;55959;51.244;5.724;2023-01-08T05:50:00;12.70;66.50
68922;DHT22;55959;51.244;5.724;2023-01-08T05:52:27;12.60;66.50
68922;DHT22;55959;51.244;5.724;2023-01-08T05:54:53;12.60;66.50
68922;DHT22;55959;51.244;5.724;2023-01-08T05:57:18;12.60;66.60
68922;DHT22;55959;51.244;5.724;2023-01-08T05:59:44;12.50;66.60
68922;DHT22;55959;51.244;5.724;2023-01-08T06:02:10;12.50;66.50
68922;DHT22;55959;51.244;5.724;2023-01-08T06:04:36;12.50;66.70
68922;DHT22;55959;51.244;5.724;2023-01-08T06:07:02;12.40;66.60
68922;DHT22;55959;51.244;5.724;2023-01-08T06:09:28;12.40;66.50
68922;DHT22;55959;51.244;5.724;2023-01-08T06:11:54;12.40;66.40
68922;DHT22;55959;51.244;5.724;2023-01-08T06:14:22;12.30;66.30
68922;DHT22;55959;51.244;5.724;2023-01-08T06:16:48;12.30;66.30
68922;DHT22;55959;51.244;5.724;2023-01-08T06:19:14;12.20;66.40
68922;DHT22;55959;51.244;5.724;2023-01-08T06:21:39;12.20;66.50
68922;DHT22;55959;51.244;5.724;2023-01-08T06:24:05;12.20;66.50
68922;DHT22;55959;51.244;5.724;2023-01-08T06:26:31;12.10;66.50
68922;DHT22;55959;51.244;5.724;2023-01-08T06:28:57;12.10;66.50
68922;DHT22;55959;51.244;5.724;2023-01-08T06:31:23;12.00;66.70
68922;DHT22;55959;51.244;5.724;2023-01-08T06:33:49;12.00;66.90
68922;DHT22;55959;51.244;5.724;2023-01-08T06:36:15;12.00;67.00
68922;DHT22;55959;51.244;5.724;2023-01-08T06:38:40;11.90;67.10
68922;DHT22;55959;51.244;5.724;2023-01-08T06:41:08;11.90;67.20
68922;DHT22;55959;51.244;5.724;2023-01-08T06:43:35;11.80;67.30
68922;DHT22;55959;51.244;5.724;2023-01-08T06:46:03;11.80;67.50
68922;DHT22;55959;51.244;5.724;2023-01-08T06:48:29;11.80;67.60
68922;DHT22;55959;51.244;5.724;2023-01-08T06:50:58;11.70;67.80
68922;DHT22;55959;51.244;5.724;2023-01-08T06:53:24;11.70;68.00
68922;DHT22;55959;51.244;5.724;2023-01-08T06:55:49;11.60;68.10
68922;DHT22;55959;51.244;5.724;2023-01-08T06:58:24;11.60;68.30
68922;DHT22;55959;51.244;5.724;2023-01-08T07:00:51;11.60;68.50
68922;DHT22;55959;51.244;5.724;2023-01-08T07:03:17;11.50;68.60
68922;DHT22;55959;51.244;5.724;2023-01-08T07:05:42;11.50;68.70
68922;DHT22;55959;51.244;5.724;2023-01-08T07:08:15;11.50;68.70
68922;DHT22;55959;51.244;5.724;2023-01-08T07:10:42;11.50;68.80
68922;DHT22;55959;51.244;5.724;2023-01-08T07:13:09;11.50;68.80
68922;DHT22;55959;51.244;5.724;2023-01-08T07:15:40;11.40;68.70
68922;DHT22;55959;51.244;5.724;2023-01-08T07:18:10;11.40;68.80
68922;DHT22;55959;51.244;5.724;2023-01-08T07:20:37;11.40;68.80
68922;DHT22;55959;51.244;5.724;2023-01-08T07:23:04;11.30;68.80
68922;DHT22;55959;51.244;5.724;2023-01-08T07:25:32;11.30;68.90
68922;DHT22;55959;51.244;5.724;2023-01-08T07:27:58;11.30;69.00
68922;DHT22;55959;51.244;5.724;2023-01-08T07:30:24;11.30;69.10
68922;DHT22;55959;51.244;5.724;2023-01-08T07:32:51;11.30;69.20
68922;DHT22;55959;51.244;5.724;2023-01-08T07:35:17;11.20;69.10
68922;DHT22;55959;51.244;5.724;2023-01-08T07:37:43;11.20;69.20
68922;DHT22;55959;51.244;5.724;2023-01-08T07:40:10;11.20;69.30
68922;DHT22;55959;51.244;5.724;2023-01-08T07:42:37;11.20;69.30
68922;DHT22;55959;51.244;5.724;2023-01-08T07:45:03;11.20;69.20
68922;DHT22;55959;51.244;5.724;2023-01-08T07:47:29;11.20;69.30
68922;DHT22;55959;51.244;5.724;2023-01-08T07:49:55;11.10;69.20
68922;DHT22;55959;51.244;5.724;2023-01-08T07:52:21;11.10;69.20
68922;DHT22;55959;51.244;5.724;2023-01-08T07:54:46;11.10;69.10
68922;DHT22;55959;51.244;5.724;2023-01-08T07:57:12;11.10;69.20
68922;DHT22;55959;51.244;5.724;2023-01-08T07:59:38;11.10;69.10
68922;DHT22;55959;51.244;5.724;2023-01-08T08:02:04;11.10;69.20
68922;DHT22;55959;51.244;5.724;2023-01-08T08:04:29;11.10;69.30
68922;DHT22;55959;51.244;5.724;2023-01-08T08:06:55;11.00;70.10
68922;DHT22;55959;51.244;5.724;2023-01-08T08:09:21;11.00;69.30
68922;DHT22;55959;51.244;5.724;2023-01-08T08:11:47;11.00;69.40
68922;DHT22;55959;51.244;5.724;2023-01-08T08:14:12;11.00;69.50
68922;DHT22;55959;51.244;5.724;2023-01-08T08:16:38;11.00;69.60
68922;DHT22;55959;51.244;5.724;2023-01-08T08:19:04;10.90;69.70
68922;DHT22;55959;51.244;5.724;2023-01-08T08:21:30;11.00;69.90
68922;DHT22;55959;51.244;5.724;2023-01-08T08:23:57;11.00;70.10
68922;DHT22;55959;51.244;5.724;2023-01-08T08:26:23;10.90;70.10
68922;DHT22;55959;51.244;5.724;2023-01-08T08:28:49;10.90;70.10
68922;DHT22;55959;51.244;5.724;2023-01-08T08:31:15;10.90;71.10
68922;DHT22;55959;51.244;5.724;2023-01-08T08:33:41;10.90;70.30
68922;DHT22;55959;51.244;5.724;2023-01-08T08:36:07;10.90;70.50
68922;DHT22;55959;51.244;5.724;2023-01-08T08:38:33;10.90;70.50
68922;DHT22;55959;51.244;5.724;2023-01-08T08:40:59;10.90;70.70
68922;DHT22;55959;51.244;5.724;2023-01-08T08:43:25;10.90;70.70
68922;DHT22;55959;51.244;5.724;2023-01-08T08:45:51;10.90;70.90
68922;DHT22;55959;51.244;5.724;2023-01-08T08:48:20;10.90;71.00
68922;DHT22;55959;51.244;5.724;2023-01-08T08:50:45;10.90;71.10
68922;DHT22;55959;51.244;5.724;2023-01-08T08:53:11;10.90;71.10
68922;DHT22;55959;51.244;5.724;2023-01-08T08:55:37;10.90;71.30
68922;DHT22;55959;51.244;5.724;2023-01-08T08:58:06;10.90;71.50
68922;DHT22;55959;51.244;5.724;2023-01-08T09:00:35;10.90;71.70
68922;DHT22;55959;51.244;5.724;2023-01-08T09:03:02;10.90;72.00
68922;DHT22;55959;51.244;5.724;2023-01-08T09:05:27;10.90;72.30
68922;DHT22;55959;51.244;5.724;2023-01-08T09:07:54;10.90;72.40
68922;DHT22;55959;51.244;5.724;2023-01-08T09:10:21;10.90;72.60
68922;DHT22;55959;51.244;5.724;2023-01-08T09:12:47;11.00;72.70
68922;DHT22;55959;51.244;5.724;2023-01-08T09:15:13;10.90;72.90
68922;DHT22;55959;51.244;5.724;2023-01-08T09:17:38;11.00;73.10
68922;DHT22;55959;51.244;5.724;2023-01-08T09:20:04;11.00;73.10
68922;DHT22;55959;51.244;5.724;2023-01-08T09:22:30;11.00;73.30
68922;DHT22;55959;51.244;5.724;2023-01-08T09:24:56;11.10;73.50
68922;DHT22;55959;51.244;5.724;2023-01-08T09:27:22;11.10;73.60
68922;DHT22;55959;51.244;5.724;2023-01-08T09:29:47;11.20;73.80
68922;DHT22;55959;51.244;5.724;2023-01-08T09:32:13;11.20;73.90
68922;DHT22;55959;51.244;5.724;2023-01-08T09:34:39;11.20;73.90
68922;DHT22;55959;51.244;5.724;2023-01-08T09:37:05;11.30;74.00
68922;DHT22;55959;51.244;5.724;2023-01-08T09:39:31;11.30;73.90
68922;DHT22;55959;51.244;5.724;2023-01-08T09:42:00;11.40;74.00
68922;DHT22;55959;51.244;5.724;2023-01-08T09:44:32;11.50;74.10
68922;DHT22;55959;51.244;5.724;2023-01-08T09:47:01;11.50;74.10
68922;DHT22;55959;51.244;5.724;2023-01-08T09:49:39;11.50;74.00
68922;DHT22;55959;51.244;5.724;2023-01-08T09:52:10;11.60;74.20
68922;DHT22;55959;51.244;5.724;2023-01-08T09:54:37;11.60;74.10
68922;DHT22;55959;51.244;5.724;2023-01-08T09:57:04;11.70;74.20
68922;DHT22;55959;51.244;5.724;2023-01-08T09:59:30;11.70;74.30
68922;DHT22;55959;51.244;5.724;2023-01-08T10:01:56;11.70;74.30
68922;DHT22;55959;51.244;5.724;2023-01-08T10:04:24;11.80;74.50
68922;DHT22;55959;51.244;5.724;2023-01-08T10:09:28;11.80;74.40
68922;DHT22;55959;51.244;5.724;2023-01-08T10:11:58;11.80;74.40
68922;DHT22;55959;51.244;5.724;2023-01-08T10:14:28;11.80;74.40
68922;DHT22;55959;51.244;5.724;2023-01-08T10:17:01;11.80;74.30
68922;DHT22;55959;51.244;5.724;2023-01-08T10:19:30;11.80;74.30
68922;DHT22;55959;51.244;5.724;2023-01-08T10:21:55;11.80;74.20
68922;DHT22;55959;51.244;5.724;2023-01-08T10:24:36;11.80;74.10
68922;DHT22;55959;51.244;5.724;2023-01-08T10:27:05;11.80;74.10
68922;DHT22;55959;51.244;5.724;2023-01-08T10:29:41;11.80;74.00
68922;DHT22;55959;51.244;5.724;2023-01-08T10:32:22;11.80;73.90
68922;DHT22;55959;51.244;5.724;2023-01-08T10:34:54;11.80;74.00
68922;DHT22;55959;51.244;5.724;2023-01-08T10:37:29;11.80;73.90
68922;DHT22;55959;51.244;5.724;2023-01-08T10:43:30;11.80;73.90
68922;DHT22;55959;51.244;5.724;2023-01-08T10:46:01;11.80;73.80
68922;DHT22;55959;51.244;5.724;2023-01-08T10:48:37;11.80;73.80
68922;DHT22;55959;51.244;5.724;2023-01-08T10:51:18;11.80;73.90
68922;DHT22;55959;51.244;5.724;2023-01-08T10:53:45;11.70;73.60
68922;DHT22;55959;51.244;5.724;2023-01-08T10:56:24;11.70;73.70
68922;DHT22;55959;51.244;5.724;2023-01-08T10:58:51;11.70;73.90
68922;DHT22;55959;51.244;5.724;2023-01-08T11:01:23;11.70;74.00
68922;DHT22;55959;51.244;5.724;2023-01-08T11:03:56;11.70;74.10
68922;DHT22;55959;51.244;5.724;2023-01-08T11:06:26;11.70;74.10
68922;DHT22;55959;51.244;5.724;2023-01-08T11:08:59;11.70;74.10
68922;DHT22;55959;51.244;5.724;2023-01-08T11:11:34;11.80;74.20
68922;DHT22;55959;51.244;5.724;2023-01-08T11:17:09;11.80;74.20
68922;DHT22;55959;51.244;5.724;2023-01-08T11:19:36;11.80;74.30
68922;DHT22;55959;51.244;5.724;2023-01-08T11:22:17;11.80;74.50
68922;DHT22;55959;51.244;5.724;2023-01-08T11:24:45;11.80;74.70
68922;DHT22;55959;51.244;5.724;2023-01-08T11:29:56;11.90;75.30
68922;DHT22;55959;51.244;5.724;2023-01-08T11:35:13;11.90;75.80
68922;DHT22;55959;51.244;5.724;2023-01-08T11:37:49;12.00;75.90
68922;DHT22;55959;51.244;5.724;2023-01-08T11:40:22;12.00;75.90
68922;DHT22;55959;51.244;5.724;2023-01-08T11:46:16;12.10;77.00
68922;DHT22;55959;51.244;5.724;2023-01-08T11:51:42;12.20;75.70
68922;DHT22;55959;51.244;5.724;2023-01-08T12:03:10;12.40;74.20
68922;DHT22;55959;51.244;5.724;2023-01-08T12:06:08;12.40;73.90
68922;DHT22;55959;51.244;5.724;2023-01-08T12:09:10;12.50;73.40
68922;DHT22;55959;51.244;5.724;2023-01-08T12:17:45;12.60;72.50
68922;DHT22;55959;51.244;5.724;2023-01-08T12:26:17;12.70;71.60
68922;DHT22;55959;51.244;5.724;2023-01-08T12:34:59;12.80;70.60
68922;DHT22;55959;51.244;5.724;2023-01-08T12:43:13;12.90;69.80
68922;DHT22;55959;51.244;5.724;2023-01-08T12:45:47;13.00;69.70
68922;DHT22;55959;51.244;5.724;2023-01-08T12:48:17;13.00;69.40
68922;DHT22;55959;51.244;5.724;2023-01-08T12:53:47;13.10;68.70
68922;DHT22;55959;51.244;5.724;2023-01-08T13:03:00;13.10;67.40
68922;DHT22;55959;51.244;5.724;2023-01-08T13:05:28;13.10;66.80
68922;DHT22;55959;51.244;5.724;2023-01-08T13:08:01;13.10;66.80
68922;DHT22;55959;51.244;5.724;2023-01-08T13:10:40;13.10;67.00
68922;DHT22;55959;51.244;5.724;2023-01-08T13:16:18;13.10;66.20
68922;DHT22;55959;51.244;5.724;2023-01-08T13:18:54;13.10;65.90
68922;DHT22;55959;51.244;5.724;2023-01-08T13:29:46;13.00;64.80
68922;DHT22;55959;51.244;5.724;2023-01-08T13:32:24;13.00;64.80
68922;DHT22;55959;51.244;5.724;2023-01-08T13:37:32;13.00;64.80
68922;DHT22;55959;51.244;5.724;2023-01-08T13:39:58;13.10;64.80
68922;DHT22;55959;51.244;5.724;2023-01-08T13:42:24;13.10;64.80
68922;DHT22;55959;51.244;5.724;2023-01-08T13:45:00;13.10;65.10
68922;DHT22;55959;51.244;5.724;2023-01-08T13:49:57;13.20;65.10
68922;DHT22;55959;51.244;5.724;2023-01-08T13:52:44;13.20;64.60
68922;DHT22;55959;51.244;5.724;2023-01-08T13:55:23;13.30;64.00
68922;DHT22;55959;51.244;5.724;2023-01-08T13:57:59;13.30;63.80
68922;DHT22;55959;51.244;5.724;2023-01-08T14:00:43;13.30;63.70
68922;DHT22;55959;51.244;5.724;2023-01-08T14:03:31;13.30;63.40
68922;DHT22;55959;51.244;5.724;2023-01-08T14:08:54;13.30;63.40
68922;DHT22;55959;51.244;5.724;2023-01-08T14:11:46;13.30;63.60
68922;DHT22;55959;51.244;5.724;2023-01-08T14:14:14;13.30;63.70
68922;DHT22;55959;51.244;5.724;2023-01-08T14:16:42;13.30;63.80
68922;DHT22;55959;51.244;5.724;2023-01-08T14:19:15;13.30;64.20
68922;DHT22;55959;51.244;5.724;2023-01-08T14:21:52;13.40;64.10
68922;DHT22;55959;51.244;5.724;2023-01-08T14:24:21;13.30;64.00
68922;DHT22;55959;51.244;5.724;2023-01-08T14:26:53;13.40;63.70
68922;DHT22;55959;51.244;5.724;2023-01-08T14:29:22;13.40;63.60
68922;DHT22;55959;51.244;5.724;2023-01-08T14:31:54;13.40;63.40
68922;DHT22;55959;51.244;5.724;2023-01-08T14:34:23;13.40;63.00
68922;DHT22;55959;51.244;5.724;2023-01-08T14:36:53;13.40;62.50
68922;DHT22;55959;51.244;5.724;2023-01-08T14:41:45;13.40;62.60
68922;DHT22;55959;51.244;5.724;2023-01-08T14:44:29;13.40;62.50
68922;DHT22;55959;51.244;5.724;2023-01-08T14:46:54;13.40;62.60
68922;DHT22;55959;51.244;5.724;2023-01-08T14:49:28;13.40;62.60
68922;DHT22;55959;51.244;5.724;2023-01-08T14:51:56;13.40;62.70
68922;DHT22;55959;51.244;5.724;2023-01-08T14:54:30;13.40;62.70
68922;DHT22;55959;51.244;5.724;2023-01-08T14:56:58;13.40;62.70
68922;DHT22;55959;51.244;5.724;2023-01-08T14:59:32;13.40;62.60
68922;DHT22;55959;51.244;5.724;2023-01-08T15:02:00;13.40;62.80
68922;DHT22;55959;51.244;5.724;2023-01-08T15:04:28;13.40;62.70
68922;DHT22;55959;51.244;5.724;2023-01-08T15:07:06;13.40;62.60
68922;DHT22;55959;51.244;5.724;2023-01-08T15:09:38;13.30;62.50
68922;DHT22;55959;51.244;5.724;2023-01-08T15:12:21;13.30;62.40
68922;DHT22;55959;51.244;5.724;2023-01-08T15:14:47;13.30;62.40
68922;DHT22;55959;51.244;5.724;2023-01-08T15:17:19;13.20;62.60
68922;DHT22;55959;51.244;5.724;2023-01-08T15:19:49;13.30;62.80
68922;DHT22;55959;51.244;5.724;2023-01-08T15:22:22;13.20;62.70
68922;DHT22;55959;51.244;5.724;2023-01-08T15:25:04;13.20;62.60
68922;DHT22;55959;51.244;5.724;2023-01-08T15:27:31;13.20;62.70
68922;DHT22;55959;51.244;5.724;2023-01-08T15:30:02;13.20;62.60
68922;DHT22;55959;51.244;5.724;2023-01-08T15:32:34;13.10;62.60
68922;DHT22;55959;51.244;5.724;2023-01-08T15:35:11;13.10;62.80
68922;DHT22;55959;51.244;5.724;2023-01-08T15:37:41;13.10;62.70
68922;DHT22;55959;51.244;5.724;2023-01-08T15:40:08;13.00;62.80
68922;DHT22;55959;51.244;5.724;2023-01-08T15:42:35;13.00;62.80
68922;DHT22;55959;51.244;5.724;2023-01-08T15:45:25;13.00;63.00
68922;DHT22;55959;51.244;5.724;2023-01-08T15:47:53;12.90;63.10
68922;DHT22;55959;51.244;5.724;2023-01-08T15:50:18;12.90;63.20
68922;DHT22;55959;51.244;5.724;2023-01-08T15:52:45;12.90;63.30
68922;DHT22;55959;51.244;5.724;2023-01-08T15:55:19;12.80;63.30
68922;DHT22;55959;51.244;5.724;2023-01-08T15:57:46;12.80;63.20
68922;DHT22;55959;51.244;5.724;2023-01-08T16:00:16;12.80;63.20
68922;DHT22;55959;51.244;5.724;2023-01-08T16:02:45;12.80;63.20
68922;DHT22;55959;51.244;5.724;2023-01-08T16:05:12;12.80;63.10
68922;DHT22;55959;51.244;5.724;2023-01-08T16:07:39;12.80;63.20
68922;DHT22;55959;51.244;5.724;2023-01-08T16:10:05;12.70;63.20
68922;DHT22;55959;51.244;5.724;2023-01-08T16:12:31;12.70;63.20
68922;DHT22;55959;51.244;5.724;2023-01-08T16:14:56;12.70;64.20
68922;DHT22;55959;51.244;5.724;2023-01-08T16:17:22;12.70;63.40
68922;DHT22;55959;51.244;5.724;2023-01-08T16:19:48;12.60;63.30
68922;DHT22;55959;51.244;5.724;2023-01-08T16:22:14;12.60;63.50
68922;DHT22;55959;51.244;5.724;2023-01-08T16:24:39;12.60;63.50
68922;DHT22;55959;51.244;5.724;2023-01-08T16:27:05;12.60;63.70
68922;DHT22;55959;51.244;5.724;2023-01-08T16:29:32;12.60;63.70
68922;DHT22;55959;51.244;5.724;2023-01-08T16:31:58;12.50;63.80
68922;DHT22;55959;51.244;5.724;2023-01-08T16:34:24;12.50;63.90
68922;DHT22;55959;51.244;5.724;2023-01-08T16:36:50;12.50;63.90
68922;DHT22;55959;51.244;5.724;2023-01-08T16:39:16;12.50;64.00
68922;DHT22;55959;51.244;5.724;2023-01-08T16:41:42;12.50;64.10
68922;DHT22;55959;51.244;5.724;2023-01-08T16:44:19;12.50;64.10
68922;DHT22;55959;51.244;5.724;2023-01-08T16:46:49;12.50;64.30
68922;DHT22;55959;51.244;5.724;2023-01-08T16:49:15;12.40;64.20
68922;DHT22;55959;51.244;5.724;2023-01-08T16:51:41;12.40;64.30
68922;DHT22;55959;51.244;5.724;2023-01-08T16:54:10;12.40;64.30
68922;DHT22;55959;51.244;5.724;2023-01-08T16:56:37;12.30;64.30
68922;DHT22;55959;51.244;5.724;2023-01-08T16:59:03;12.30;64.50
68922;DHT22;55959;51.244;5.724;2023-01-08T17:01:28;12.30;64.60
68922;DHT22;55959;51.244;5.724;2023-01-08T17:03:54;12.30;64.70
68922;DHT22;55959;51.244;5.724;2023-01-08T17:06:20;12.20;64.70
68922;DHT22;55959;51.244;5.724;2023-01-08T17:08:46;12.20;64.70
68922;DHT22;55959;51.244;5.724;2023-01-08T17:11:13;12.20;64.90
68922;DHT22;55959;51.244;5.724;2023-01-08T17:13:40;12.20;64.90
68922;DHT22;55959;51.244;5.724;2023-01-08T17:16:08;12.10;64.90
68922;DHT22;55959;51.244;5.724;2023-01-08T17:18:36;12.10;65.00
68922;DHT22;55959;51.244;5.724;2023-01-08T17:21:03;12.10;65.90
68922;DHT22;55959;51.244;5.724;2023-01-08T17:23:30;12.00;65.10